createdAt,value
2023-01-08T00:00:03.242Z,1019.31
2023-01-08T00:16:00.459Z,1019.2
2023-01-08T00:31:03.682Z,1019.2
2023-01-08T00:46:04.690Z,1019.1
2023-01-08T01:00:01.548Z,1019.1
2023-01-08T01:16:03.829Z,1019.27
2023-01-08T01:31:00.972Z,1019.2
2023-01-08T01:46:03.251Z,1019.41
2023-01-08T02:00:00.353Z,1019.1
2023-01-08T02:16:02.264Z,1019
2023-01-08T02:31:04.414Z,1018.97
2023-01-08T02:46:01.535Z,1018.93
2023-01-08T03:00:03.396Z,1018.8
2023-01-08T03:16:01.107Z,1018.63
2023-01-08T03:31:03.087Z,1018.39
2023-01-08T03:46:00.475Z,1018.26
2023-01-08T04:00:02.197Z,1018.29
2023-01-08T04:16:04.174Z,1017.95
2023-01-08T04:31:01.293Z,1018.09
2023-01-08T04:46:03.596Z,1017.88
2023-01-08T05:00:00.558Z,1017.85
2023-01-08T05:16:02.692Z,1017.92
2023-01-08T05:31:04.565Z,1017.78
2023-01-08T05:46:01.793Z,1017.55
2023-01-08T06:00:03.615Z,1017.51
2023-01-08T06:16:01.095Z,1017.51
2023-01-08T06:31:03.186Z,1017.44
2023-01-08T06:46:00.112Z,1017.14
2023-01-08T07:00:02.209Z,1017
2023-01-08T07:16:04.182Z,1016.97
2023-01-08T07:31:01.452Z,1016.8
2023-01-08T07:46:04.344Z,1016.87
2023-01-08T08:00:00.443Z,1016.9
2023-01-08T08:16:02.612Z,1016.63
2023-01-08T08:31:04.484Z,1016.56
2023-01-08T08:46:01.371Z,1016.39
2023-01-08T09:00:03.163Z,1016.12
2023-01-08T09:16:00.537Z,1015.89
2023-01-08T09:31:02.410Z,1015.89
2023-01-08T09:46:04.574Z,1015.65
2023-01-08T10:00:01.545Z,1015.38
2023-01-08T10:16:03.805Z,1015.04
2023-01-08T10:31:00.881Z,1014.77
2023-01-08T10:46:02.885Z,1014.67
2023-01-08T11:00:04.804Z,1014.4
2023-01-08T11:16:02.252Z,1014.02
2023-01-08T11:31:04.168Z,1013.92
2023-01-08T11:46:01.375Z,1013.58
2023-01-08T12:00:03.443Z,1013.41
2023-01-08T12:16:00.705Z,1013.28
2023-01-08T12:31:02.582Z,1013.04
2023-01-08T12:46:00.214Z,1013.01
2023-01-08T13:00:01.705Z,1013.01
2023-01-08T13:16:03.843Z,1012.87
2023-01-08T13:31:01.381Z,1012.67
2023-01-08T13:46:03.013Z,1012.7
2023-01-08T14:00:04.753Z,1012.7
2023-01-08T14:16:02.159Z,1012.74
2023-01-08T14:31:04.306Z,1012.67
2023-01-08T14:46:01.424Z,1012.6
2023-01-08T15:00:03.307Z,1012.57
2023-01-08T15:16:00.641Z,1012.36
2023-01-08T15:31:02.980Z,1012.23
2023-01-08T15:46:02.245Z,1012.3
2023-01-08T16:00:02.996Z,1012.23
2023-01-08T16:16:04.218Z,1012.19
2023-01-08T16:31:01.248Z,1012.33
2023-01-08T16:46:03.555Z,1012.26
2023-01-08T17:00:00.525Z,1012.26
2023-01-08T17:16:03.159Z,1012.3
2023-01-08T17:31:04.801Z,1012.13
2023-01-08T17:46:01.802Z,1012.06
2023-01-08T18:00:03.729Z,1011.92
2023-01-08T18:16:15.907Z,1012.06
2023-01-08T18:31:02.844Z,1011.89
2023-01-08T18:46:00.267Z,1011.69
2023-01-08T19:00:02.041Z,1011.72
2023-01-08T19:16:04.302Z,1011.48
2023-01-08T19:31:03.551Z,1011.31
2023-01-08T19:46:03.441Z,1011.08
2023-01-08T20:00:00.652Z,1011.01
2023-01-08T20:16:03.002Z,1010.7
2023-01-08T20:30:59.883Z,1010.4
2023-01-08T20:46:01.674Z,1010.26
2023-01-08T21:00:03.192Z,1009.99
2023-01-08T21:16:00.606Z,1009.86
2023-01-08T21:31:02.458Z,1009.55
2023-01-08T21:46:04.418Z,1009.45
2023-01-08T22:00:01.551Z,1009.52
2023-01-08T22:16:03.552Z,1009.35
2023-01-08T22:31:00.641Z,1009.15
2023-01-08T22:46:02.877Z,1009.01
2023-01-08T23:00:04.616Z,1008.81
2023-01-08T23:16:01.903Z,1008.57
2023-01-08T23:31:03.924Z,1008.37
2023-01-08T23:46:01.290Z,1008.06
